釧路空港の過去48時間の天気

釧路空港 (Kushiro)

現在時刻: 2/25 18:25 JST (2/25 09:25 UTC) 以下の時間は現地時間です。

過去48時間のMETAR気象情報
時間 風向 風速(m/s) 視程 気温(℃) 湿度(%) 気圧(hPa) 天気現象
25 18:00 南南西 3 10km以上 -3 74 1021
25 17:00 南南西 4 10km以上 -2 69 1020
25 16:00 南南西 5 10km以上 -1 69 1020
25 15:00 南南西 5 10km以上 -1 64 1020
25 14:00 南南西 5 10km以上 -1 59 1019
25 13:00 南南西 5 10km以上 -1 59 1019
25 12:00 4 10km以上 -1 55 1020
25 11:00 南南東 3 10km以上 -1 50 1020
25 10:00 北北西 2 10km以上 -2 43 1020
25 09:00 北北東 2 10km以上 -3 46 1020
25 08:00 北北東 2 10km以上 -5 68 1020
25 07:00 北西 2 10km以上 -6 79 1020
25 06:45 北西 2 10km以上 -7 79 1020
24 20:00 東北東 2 10km以上 -4 74 1014
24 19:00 東北東 3 10km以上 -4 80 1014
24 18:00 東北東 4 10km以上 -2 74 1013
24 17:00 北東 4 10km以上 -1 69 1013
24 16:00 東南東 3 10km以上 0 69 1012
24 15:00 3 10km以上 1 64 1012
24 14:00 南南東 3 10km以上 1 60 1011
24 13:00 南南東 5 10km以上 0 59 1011
24 12:00 南南東 4 10km以上 1 51 1012
24 11:00 南南東 3 10km以上 1 55 1013
24 10:00 南南東 3 10km以上 0 51 1013
24 09:00 不定 1 10km以上 -1 47 1013
24 08:00 不定 1 10km以上 -2 59 1012
24 07:00 西北西 2 10km以上 -4 63 1012
24 06:45 北西 2 10km以上 -4 63 1012
23 20:00 北西 6 10km以上 1 64 1001
23 19:00 北西 9 10km以上 2 55 999
RJCK 250900Z 21006KT 9999 FEW030 SCT050 M03/M07 Q1021
RJCK 250800Z 20008KT 9999 FEW030 M02/M07 Q1020
RJCK 250700Z 20010KT 9999 FEW040 M01/M06 Q1020
RJCK 250600Z 20009KT 9999 FEW040 M01/M07 Q1020
RJCK 250500Z 21010KT 9999 FEW040 M01/M08 Q1019
RJCK 250400Z 21009KT 9999 FEW040 M01/M08 Q1019
RJCK 250300Z 18008KT 9999 FEW030 M01/M09 Q1020
RJCK 250200Z 15006KT 9999 FEW030 M01/M10 Q1020
RJCK 250100Z 33004KT 9999 FEW030 M02/M13 Q1020
RJCK 250000Z 03003KT 330V060 9999 FEW030 M03/M13 Q1020
RJCK 242300Z 02003KT 340V060 9999 FEW030 M05/M10 Q1020
RJCK 242200Z 31003KT 9999 FEW030 M06/M09 Q1020
RJCK 242145Z 31004KT 9999 FEW030 M07/M10 Q1020 RMK 1CU030 A3013
RJCK 241100Z 07004KT 9999 FEW020 M04/M08 Q1014
RJCK 241000Z 06006KT 9999 FEW020 SCT100 M04/M07 Q1014
RJCK 240900Z 06007KT 9999 FEW020 SCT120 M02/M06 Q1013
RJCK 240800Z 05008KT 9999 FEW015 BKN/// M01/M06 Q1013
RJCK 240700Z 11006KT 080V140 9999 FEW030 SCT050 BKN/// 00/M05 Q1012
RJCK 240600Z 08005KT 040V120 9999 FEW015 SCT/// 01/M05 Q1012
RJCK 240500Z 16006KT 9999 FEW040 SCT050 BKN/// 01/M06 Q1011
RJCK 240400Z 15009KT 9999 FEW040 BKN/// 00/M07 Q1011
RJCK 240300Z 16008KT 9999 FEW040 01/M08 Q1012
RJCK 240200Z 15006KT 9999 FEW040 01/M07 Q1013
RJCK 240100Z 16005KT 100V190 9999 FEW040 00/M09 Q1013
RJCK 240000Z VRB01KT 9999 FEW040 BKN/// M01/M11 Q1013
RJCK 232300Z VRB01KT 9999 FEW040 BKN/// M02/M09 Q1012
RJCK 232200Z 29003KT 9999 FEW030 M04/M10 Q1012
RJCK 232145Z 31003KT 9999 FEW030 M04/M10 Q1012 RMK 1CU030 A2989
RJCK 231100Z 32011KT 9999 FEW030 01/M05 Q1001
RJCK 231000Z 32017G27KT 280V350 9999 FEW030 02/M06 Q0999